Time;durP1;ratioP1;P1;durP2;ratioP2;P2;SDS_P1;SDS_P2;PMS_P1;PMS_P2;Temp;Humidity;BMP_temperature;BMP_pressure;BME280_temperature;BME280_humidity;BME280_pressure;Samples;Min_cycle;Max_cycle;Signal;HPM_P1;HPM_P2
2023/04/25 00:01:17;;;;;;;4.88;3.17;;;;;;;;;;6234840;28;20446;-79
2023/04/25 00:04:19;;;;;;;7.28;3.22;;;;;;;;;;6238984;28;20413;-80
2023/04/25 00:07:21;;;;;;;10.05;3.55;;;;;;;;;;6249687;28;20128;-79
2023/04/25 00:10:22;;;;;;;6.70;3.30;;;;;;;;;;6237958;28;20057;-79
2023/04/25 00:13:25;;;;;;;6.50;3.58;;;;;;;;;;6234613;28;20068;-80
2023/04/25 00:16:26;;;;;;;7.20;3.80;;;;;;;;;;6231590;28;20053;-79
2023/04/25 00:19:28;;;;;;;6.78;3.88;;;;;;;;;;6240914;28;20045;-78
2023/04/25 00:22:31;;;;;;;8.27;4.00;;;;;;;;;;6232806;28;20499;-80
2023/04/25 00:25:32;;;;;;;8.73;3.58;;;;;;;;;;6233852;28;20493;-79
2023/04/25 00:28:34;;;;;;;7.45;3.85;;;;;;;;;;6247769;28;20045;-80
2023/04/25 00:31:36;;;;;;;6.60;3.92;;;;;;;;;;6235598;28;20041;-79
2023/04/25 00:34:38;;;;;;;9.63;4.78;;;;;;;;;;6234959;28;20100;-80
2023/04/25 00:37:39;;;;;;;11.10;4.15;;;;;;;;;;6231721;28;20582;-79
2023/04/25 00:40:43;;;;;;;6.95;3.83;;;;;;;;;;6215060;28;20045;-79
2023/04/25 00:43:45;;;;;;;6.55;3.95;;;;;;;;;;6232236;28;20053;-79
2023/04/25 00:46:49;;;;;;;8.55;4.75;;;;;;;;;;6232427;28;20057;-78
2023/04/25 00:49:53;;;;;;;6.78;3.20;;;;;;;;;;6245699;28;20537;-79
2023/04/25 00:52:54;;;;;;;;;;;;;;;;;;6215822;28;20051;-79
2023/04/25 00:55:56;;;;;;;8.00;3.70;;;;;;;;;;6248314;28;19953;-79
2023/04/25 00:58:58;;;;;;;9.38;3.72;;;;;;;;;;6232913;28;20046;-79
2023/04/25 01:02:00;;;;;;;8.40;3.53;;;;;;;;;;6213861;28;20073;-78
2023/04/25 01:05:03;;;;;;;6.55;3.80;;;;;;;;;;6229382;28;20041;-80
2023/04/25 01:08:04;;;;;;;8.67;3.70;;;;;;;;;;6247503;28;20184;-79
2023/04/25 01:11:06;;;;;;;10.23;4.20;;;;;;;;;;6233130;28;20037;-79
2023/04/25 01:14:08;;;;;;;9.73;3.78;;;;;;;;;;6210080;28;20042;-79
2023/04/25 01:17:11;;;;;;;8.35;4.22;;;;;;;;;;6201318;28;20132;-79
2023/04/25 01:20:13;;;;;;;7.70;3.50;;;;;;;;;;6211057;28;20046;-79
2023/04/25 01:23:16;;;;;;;8.63;3.42;;;;;;;;;;6191496;28;20041;-78
2023/04/25 01:26:18;;;;;;;8.52;3.40;;;;;;;;;;6210445;28;20524;-79
2023/04/25 01:29:20;;;;;;;8.02;4.07;;;;;;;;;;6213171;28;20208;-79
2023/04/25 01:32:23;;;;;;;8.07;3.95;;;;;;;;;;6228537;28;20538;-78
2023/04/25 01:35:25;;;;;;;9.93;4.10;;;;;;;;;;6219473;28;20054;-78
2023/04/25 01:38:29;;;;;;;12.07;4.32;;;;;;;;;;6209627;28;20045;-78
2023/04/25 01:41:32;;;;;;;9.10;4.40;;;;;;;;;;6230272;28;20046;-79
2023/04/25 01:44:34;;;;;;;7.83;3.77;;;;;;;;;;6237851;28;20520;-78
2023/04/25 01:47:35;;;;;;;10.80;4.53;;;;;;;;;;6238474;28;20094;-79
2023/04/25 01:50:38;;;;;;;10.27;4.50;;;;;;;;;;6223559;28;20057;-80
2023/04/25 01:53:40;;;;;;;8.35;4.03;;;;;;;;;;6202959;28;20049;-78
2023/04/25 01:56:42;;;;;;;10.57;4.32;;;;;;;;;;6235073;28;20588;-78
2023/04/25 01:59:45;;;;;;;;;;;;;;;;;;6235026;28;20068;-80
2023/04/25 02:02:58;;;;;;;8.13;3.25;;;;;;;;;;6240006;28;19921;-80
2023/04/25 02:06:04;;;;;;;8.18;3.42;;;;;;;;;;6251478;28;20136;-79
2023/04/25 02:09:09;;;;;;;8.40;3.80;;;;;;;;;;6239442;28;20049;-80
2023/04/25 02:12:17;;;;;;;8.38;3.58;;;;;;;;;;6236233;28;20049;-80
2023/04/25 02:15:39;;;;;;;9.63;3.17;;;;;;;;;;6246318;28;20507;-80
2023/04/25 02:18:48;;;;;;;9.40;3.45;;;;;;;;;;6250912;28;20044;-79
2023/04/25 02:21:50;;;;;;;8.18;3.33;;;;;;;;;;6228310;28;20129;-80
2023/04/25 02:24:53;;;;;;;10.10;3.60;;;;;;;;;;6250060;28;20133;-79
2023/04/25 02:27:55;;;;;;;10.65;3.53;;;;;;;;;;6190588;28;20073;-79
2023/04/25 02:30:57;;;;;;;9.10;3.38;;;;;;;;;;6203571;28;20049;-79
2023/04/25 02:33:59;;;;;;;9.73;3.85;;;;;;;;;;6207663;28;20515;-80
2023/04/25 02:37:01;;;;;;;11.07;4.03;;;;;;;;;;6224870;28;20042;-78
2023/04/25 02:40:04;;;;;;;10.63;4.22;;;;;;;;;;6227931;28;20058;-80
2023/04/25 02:43:06;;;;;;;12.70;4.03;;;;;;;;;;6231250;28;20038;-80
2023/04/25 02:46:08;;;;;;;13.27;4.30;;;;;;;;;;6218698;28;20448;-79
2023/04/25 02:49:10;;;;;;;10.30;4.15;;;;;;;;;;6236453;28;20057;-79
2023/04/25 02:52:12;;;;;;;9.38;4.25;;;;;;;;;;6221372;28;20168;-79
2023/04/25 02:55:14;;;;;;;9.10;3.60;;;;;;;;;;6253254;28;20045;-79
2023/04/25 02:58:17;;;;;;;9.98;3.97;;;;;;;;;;6225545;28;20049;-80
2023/04/25 03:01:24;;;;;;;8.27;4.45;;;;;;;;;;6234094;28;20034;-81
2023/04/25 03:04:26;;;;;;;10.32;3.45;;;;;;;;;;6218994;28;20136;-80
2023/04/25 03:07:29;;;;;;;12.13;3.58;;;;;;;;;;6233405;28;20046;-80
2023/04/25 03:10:30;;;;;;;8.80;3.30;;;;;;;;;;6259989;28;20049;-80
2023/04/25 03:13:37;;;;;;;10.02;3.28;;;;;;;;;;6233368;28;20261;-80
2023/04/25 03:16:39;;;;;;;6.53;2.80;;;;;;;;;;6250597;28;20060;-79
2023/04/25 03:19:41;;;;;;;7.78;3.67;;;;;;;;;;6236463;28;20058;-80
2023/04/25 03:22:44;;;;;;;9.15;3.30;;;;;;;;;;6242390;28;20104;-79
2023/04/25 03:25:46;;;;;;;11.38;3.08;;;;;;;;;;6256109;28;20200;-80
2023/04/25 03:28:48;;;;;;;7.63;3.03;;;;;;;;;;6255146;28;20114;-80
2023/04/25 03:31:50;;;;;;;7.47;3.00;;;;;;;;;;6210435;28;20056;-80
2023/04/25 03:34:53;;;;;;;6.28;3.30;;;;;;;;;;6200899;28;20042;-79
2023/04/25 03:37:55;;;;;;;10.20;3.65;;;;;;;;;;6205932;28;20486;-80
2023/04/25 03:41:02;;;;;;;11.07;3.35;;;;;;;;;;6220544;28;20658;-80
2023/04/25 03:44:24;;;;;;;7.22;3.00;;;;;;;;;;6196319;28;20461;-80
2023/04/25 03:47:26;;;;;;;5.85;2.50;;;;;;;;;;6207431;28;20041;-80
2023/04/25 03:50:28;;;;;;;8.35;3.72;;;;;;;;;;6209321;28;20041;-80
2023/04/25 03:53:30;;;;;;;6.60;3.58;;;;;;;;;;6226726;28;20051;-79
2023/04/25 03:57:07;;;;;;;6.88;3.03;;;;;;;;;;6232484;28;20538;-79
2023/04/25 04:00:12;;;;;;;7.38;2.67;;;;;;;;;;6230110;28;20065;-79
2023/04/25 04:03:14;;;;;;;6.23;2.53;;;;;;;;;;6231948;28;20037;-80
2023/04/25 04:06:17;;;;;;;7.07;2.60;;;;;;;;;;6227018;28;20048;-79
2023/04/25 04:09:23;;;;;;;4.90;2.53;;;;;;;;;;6234709;28;20053;-79
2023/04/25 04:12:24;;;;;;;11.68;3.03;;;;;;;;;;6232268;28;20079;-78
2023/04/25 04:15:26;;;;;;;5.80;2.92;;;;;;;;;;6232955;28;20045;-78
2023/04/25 04:18:28;;;;;;;7.55;3.13;;;;;;;;;;6235451;28;20670;-80
2023/04/25 04:21:31;;;;;;;7.68;3.05;;;;;;;;;;6235629;28;20041;-79
2023/04/25 04:24:34;;;;;;;8.48;3.13;;;;;;;;;;6241526;28;20128;-80
2023/04/25 04:27:40;;;;;;;10.68;3.28;;;;;;;;;;6252962;28;20410;-80
2023/04/25 04:31:18;;;;;;;12.63;3.40;;;;;;;;;;6232908;28;20495;-79
2023/04/25 04:34:20;;;;;;;10.30;4.03;;;;;;;;;;6215872;28;20373;-80
2023/04/25 04:37:22;;;;;;;9.45;3.08;;;;;;;;;;6233035;28;20442;-80
2023/04/25 04:40:25;;;;;;;10.23;3.47;;;;;;;;;;6250680;28;20521;-79
2023/04/25 04:43:40;;;;;;;8.77;4.07;;;;;;;;;;6248158;28;20140;-80
2023/04/25 04:46:50;;;;;;;5.38;2.78;;;;;;;;;;6242040;28;20068;-80
2023/04/25 04:49:52;;;;;;;9.80;3.50;;;;;;;;;;6237461;28;20186;-80
2023/04/25 04:53:12;;;;;;;9.57;3.10;;;;;;;;;;6245817;28;20038;-80
2023/04/25 04:56:43;;;;;;;11.35;3.95;;;;;;;;;;6223780;28;20064;-80
2023/04/25 05:00:10;;;;;;;10.65;3.38;;;;;;;;;;6234013;28;20053;-78
2023/04/25 05:03:34;;;;;;;9.93;3.75;;;;;;;;;;6237029;28;20050;-79
2023/04/25 05:06:45;;;;;;;15.18;3.97;;;;;;;;;;6236177;28;20112;-79
2023/04/25 05:09:49;;;;;;;11.25;4.32;;;;;;;;;;6238395;28;20048;-79
2023/04/25 05:13:17;;;;;;;9.55;3.97;;;;;;;;;;6234754;28;20045;-80
2023/04/25 05:16:46;;;;;;;11.98;4.10;;;;;;;;;;6236544;28;20041;-80
2023/04/25 05:20:09;;;;;;;12.23;4.45;;;;;;;;;;6237271;28;20045;-79
2023/04/25 05:23:35;;;;;;;10.25;4.07;;;;;;;;;;6222490;28;20057;-80
2023/04/25 05:26:57;;;;;;;10.77;4.32;;;;;;;;;;6236452;28;20045;-80
2023/04/25 05:30:15;;;;;;;14.32;5.10;;;;;;;;;;6234437;28;20340;-79
2023/04/25 05:33:39;;;;;;;11.73;5.03;;;;;;;;;;6232819;28;21123;-80
2023/04/25 05:36:41;;;;;;;9.80;4.87;;;;;;;;;;6236679;28;20572;-81
2023/04/25 05:39:43;;;;;;;10.68;4.40;;;;;;;;;;6235833;28;20069;-80
2023/04/25 05:43:03;;;;;;;12.02;4.47;;;;;;;;;;6248961;28;20046;-80
2023/04/25 05:46:23;;;;;;;14.77;4.90;;;;;;;;;;6233032;28;20045;-79
2023/04/25 05:49:44;;;;;;;12.57;5.00;;;;;;;;;;6238685;28;20132;-80
2023/04/25 05:53:07;;;;;;;12.20;5.03;;;;;;;;;;6229812;28;20060;-79
2023/04/25 05:56:17;;;;;;;10.98;5.15;;;;;;;;;;6232912;28;20849;-79
2023/04/25 05:59:20;;;;;;;13.52;4.97;;;;;;;;;;6232836;28;20107;-80
2023/04/25 06:02:22;;;;;;;19.27;5.57;;;;;;;;;;6234968;28;20076;-80
2023/04/25 06:05:24;;;;;;;13.17;4.83;;;;;;;;;;6236086;28;20073;-79
2023/04/25 06:08:26;;;;;;;14.68;5.97;;;;;;;;;;6233075;28;20527;-80
2023/04/25 06:11:28;;;;;;;12.93;5.60;;;;;;;;;;6214481;28;20046;-80
2023/04/25 06:14:30;;;;;;;19.20;5.63;;;;;;;;;;6237294;28;22729;-81
2023/04/25 06:17:33;;;;;;;11.15;5.05;;;;;;;;;;6230398;28;20053;-80
2023/04/25 06:20:35;;;;;;;12.77;5.25;;;;;;;;;;6234982;28;20060;-78
2023/04/25 06:23:37;;;;;;;15.32;5.30;;;;;;;;;;6233559;28;20209;-79
2023/04/25 06:26:41;;;;;;;12.57;4.93;;;;;;;;;;6247396;28;20049;-80
2023/04/25 06:29:43;;;;;;;11.50;5.70;;;;;;;;;;6214276;28;20053;-80
2023/04/25 06:32:45;;;;;;;13.95;5.55;;;;;;;;;;6225951;28;20034;-80
2023/04/25 06:35:47;;;;;;;13.50;5.40;;;;;;;;;;6247976;28;20053;-81
2023/04/25 06:38:53;;;;;;;14.60;5.57;;;;;;;;;;6248152;28;20139;-80
2023/04/25 06:41:55;;;;;;;15.15;5.78;;;;;;;;;;6248473;28;20519;-79
2023/04/25 06:45:14;;;;;;;18.25;5.70;;;;;;;;;;6227270;28;20068;-79
2023/04/25 06:48:16;;;;;;;10.07;5.25;;;;;;;;;;6238926;28;20116;-79
2023/04/25 06:51:18;;;;;;;13.18;5.90;;;;;;;;;;6240014;28;20049;-77
2023/04/25 06:54:20;;;;;;;11.10;5.32;;;;;;;;;;6237965;28;20128;-80
2023/04/25 06:57:33;;;;;;;;;;;;;;;;;;6230261;28;20122;-79
2023/04/25 07:00:54;;;;;;;13.07;4.80;;;;;;;;;;6205683;28;20016;-78
2023/04/25 07:03:58;;;;;;;11.73;5.53;;;;;;;;;;6207109;28;20068;-77
2023/04/25 07:07:03;;;;;;;12.30;5.60;;;;;;;;;;6203477;28;20056;-78
2023/04/25 07:10:12;;;;;;;11.82;5.18;;;;;;;;;;6201651;28;20167;-79
2023/04/25 07:13:13;;;;;;;10.52;5.22;;;;;;;;;;6202462;28;20525;-77
2023/04/25 07:16:16;;;;;;;14.38;5.80;;;;;;;;;;6219925;28;20052;-77
2023/04/25 07:19:18;;;;;;;11.63;5.00;;;;;;;;;;6206781;28;20049;-77
2023/04/25 07:22:20;;;;;;;12.60;5.35;;;;;;;;;;6229717;28;20601;-77
2023/04/25 07:25:21;;;;;;;13.35;5.20;;;;;;;;;;6227697;28;20503;-78
2023/04/25 07:28:23;;;;;;;11.43;5.35;;;;;;;;;;6242293;28;20049;-78
2023/04/25 07:31:25;;;;;;;12.52;5.53;;;;;;;;;;6243113;28;20059;-77
2023/04/25 07:34:27;;;;;;;10.98;5.13;;;;;;;;;;6236466;28;20045;-78
2023/04/25 07:37:29;;;;;;;12.82;5.20;;;;;;;;;;6204004;28;20087;-79
2023/04/25 07:40:37;;;;;;;11.45;5.00;;;;;;;;;;6209264;28;20058;-77
2023/04/25 07:43:42;;;;;;;9.48;4.78;;;;;;;;;;6194597;28;20635;-79
2023/04/25 07:46:46;;;;;;;9.57;4.93;;;;;;;;;;6183609;28;20042;-77
2023/04/25 07:49:48;;;;;;;9.23;5.03;;;;;;;;;;6213887;28;20461;-76
2023/04/25 07:52:50;;;;;;;8.00;4.07;;;;;;;;;;6213972;28;20056;-77
2023/04/25 07:55:59;;;;;;;9.70;4.72;;;;;;;;;;6207310;28;20103;-80
2023/04/25 07:59:05;;;;;;;9.90;4.65;;;;;;;;;;6232789;28;20098;-77
2023/04/25 08:02:07;;;;;;;13.70;4.88;;;;;;;;;;6230091;28;20041;-77
2023/04/25 08:05:11;;;;;;;12.93;5.22;;;;;;;;;;6231704;28;20044;-79
2023/04/25 08:08:15;;;;;;;10.95;4.85;;;;;;;;;;6233788;28;20033;-79
2023/04/25 08:11:17;;;;;;;12.35;5.20;;;;;;;;;;6237943;28;20100;-79
2023/04/25 08:14:19;;;;;;;11.85;4.57;;;;;;;;;;6249048;28;20053;-78
2023/04/25 08:17:22;;;;;;;14.07;4.30;;;;;;;;;;6232762;28;20530;-79
2023/04/25 08:20:24;;;;;;;15.25;4.78;;;;;;;;;;6248684;28;20049;-77
2023/04/25 08:23:28;;;;;;;7.63;3.80;;;;;;;;;;6230678;28;20057;-77
2023/04/25 08:26:39;;;;;;;8.52;3.50;;;;;;;;;;6227665;28;20041;-78
2023/04/25 08:29:42;;;;;;;10.73;3.75;;;;;;;;;;6215828;28;20045;-77
2023/04/25 08:32:44;;;;;;;8.15;3.05;;;;;;;;;;6244095;28;20041;-77
2023/04/25 08:36:01;;;;;;;4.65;2.63;;;;;;;;;;6227109;28;20055;-77
2023/04/25 08:39:03;;;;;;;4.25;2.10;;;;;;;;;;6231737;28;20052;-78
2023/04/25 08:42:12;;;;;;;14.75;3.22;;;;;;;;;;6216638;28;20126;-78
2023/04/25 08:45:13;;;;;;;;;;;;;;;;;;6229052;28;20115;-78
2023/04/25 08:48:17;;;;;;;7.68;2.22;;;;;;;;;;6230952;28;19921;-78
2023/04/25 08:51:24;;;;;;;6.25;2.45;;;;;;;;;;6232548;28;20038;-78
2023/04/25 08:54:31;;;;;;;8.23;2.78;;;;;;;;;;6234088;28;20039;-78
2023/04/25 08:57:39;;;;;;;13.23;2.90;;;;;;;;;;6228024;28;20080;-76
2023/04/25 09:00:42;;;;;;;7.35;2.50;;;;;;;;;;6213590;28;20049;-78
2023/04/25 09:03:46;;;;;;;4.43;2.20;;;;;;;;;;6226256;28;20077;-76
2023/04/25 09:06:48;;;;;;;7.95;2.85;;;;;;;;;;6232041;28;20099;-77
2023/04/25 09:09:50;;;;;;;6.30;2.42;;;;;;;;;;6230519;28;20128;-77
2023/04/25 09:13:05;;;;;;;8.10;2.33;;;;;;;;;;6229779;28;20042;-77
2023/04/25 09:16:21;;;;;;;5.72;2.15;;;;;;;;;;6241592;28;20152;-77
2023/04/25 09:19:46;;;;;;;5.22;2.10;;;;;;;;;;6230806;28;20111;-77
2023/04/25 09:23:03;;;;;;;5.68;1.98;;;;;;;;;;6232174;28;22544;-77
2023/04/25 09:26:07;;;;;;;5.85;2.42;;;;;;;;;;6214227;28;20124;-77
2023/04/25 09:29:09;;;;;;;5.68;2.20;;;;;;;;;;6229208;28;20041;-77
2023/04/25 09:32:20;;;;;;;5.70;2.35;;;;;;;;;;6237529;28;20052;-76
2023/04/25 09:35:28;;;;;;;3.22;2.00;;;;;;;;;;6234710;28;20042;-75
2023/04/25 09:38:45;;;;;;;4.82;1.90;;;;;;;;;;6268643;28;20038;-78
2023/04/25 09:42:17;;;;;;;5.80;1.90;;;;;;;;;;6243580;28;20408;-77
2023/04/25 09:45:19;;;;;;;7.27;2.20;;;;;;;;;;6242606;28;20037;-77
2023/04/25 09:48:22;;;;;;;3.67;1.73;;;;;;;;;;6250116;28;20543;-78
2023/04/25 09:51:27;;;;;;;4.32;1.48;;;;;;;;;;6238318;28;20049;-78
2023/04/25 09:54:32;;;;;;;3.75;2.20;;;;;;;;;;6232090;28;20095;-77
2023/04/25 09:57:44;;;;;;;4.65;1.50;;;;;;;;;;6251056;28;20091;-77
2023/04/25 10:00:47;;;;;;;6.30;2.20;;;;;;;;;;6215700;28;20045;-77
2023/04/25 10:04:03;;;;;;;5.20;1.83;;;;;;;;;;6231341;28;20053;-77
2023/04/25 10:07:15;;;;;;;4.38;1.70;;;;;;;;;;6241862;28;20065;-77
2023/04/25 10:10:19;;;;;;;6.07;1.90;;;;;;;;;;6228535;28;20045;-77
2023/04/25 10:13:22;;;;;;;5.90;2.45;;;;;;;;;;6244359;28;20042;-76
2023/04/25 10:16:24;;;;;;;4.10;1.98;;;;;;;;;;6240754;28;20115;-77
2023/04/25 10:19:27;;;;;;;4.78;2.20;;;;;;;;;;6230078;28;20087;-77
2023/04/25 10:22:32;;;;;;;7.68;2.90;;;;;;;;;;6228612;28;20064;-77
2023/04/25 10:25:37;;;;;;;7.30;2.40;;;;;;;;;;6231696;28;20038;-77
2023/04/25 10:28:59;;;;;;;6.75;2.25;;;;;;;;;;6231938;28;20049;-77
2023/04/25 10:32:00;;;;;;;3.90;2.13;;;;;;;;;;6230960;28;20049;-74
2023/04/25 10:35:23;;;;;;;7.43;2.30;;;;;;;;;;6231497;28;20096;-78
2023/04/25 10:38:26;;;;;;;4.00;2.67;;;;;;;;;;6246226;28;20045;-78
2023/04/25 10:41:29;;;;;;;5.63;2.37;;;;;;;;;;6234890;28;20057;-79
2023/04/25 10:44:31;;;;;;;;;;;;;;;;;;6226488;28;20495;-76
2023/04/25 10:47:36;;;;;;;4.65;2.20;;;;;;;;;;6231609;28;20697;-76
2023/04/25 10:50:41;;;;;;;5.00;2.67;;;;;;;;;;6234308;28;20150;-78
2023/04/25 10:53:54;;;;;;;3.42;2.20;;;;;;;;;;6206379;28;20052;-78
2023/04/25 10:56:58;;;;;;;5.78;2.80;;;;;;;;;;6204677;28;20048;-78
2023/04/25 11:00:06;;;;;;;9.18;2.58;;;;;;;;;;6202896;28;20145;-78
2023/04/25 11:03:07;;;;;;;8.00;2.55;;;;;;;;;;6214348;28;20046;-78
2023/04/25 11:06:31;;;;;;;6.10;3.38;;;;;;;;;;6207650;28;20045;-77
2023/04/25 11:09:34;;;;;;;5.85;2.90;;;;;;;;;;6202863;28;22297;-78
2023/04/25 11:12:36;;;;;;;;;;;;;;;;;;6242798;28;20064;-78
2023/04/25 11:15:38;;;;;;;5.13;2.92;;;;;;;;;;6226665;28;20022;-77
2023/04/25 11:18:44;;;;;;;4.15;2.55;;;;;;;;;;6242379;28;20195;-77
2023/04/25 11:21:46;;;;;;;4.13;2.50;;;;;;;;;;6227419;28;20159;-80
2023/04/25 11:24:47;;;;;;;6.05;2.50;;;;;;;;;;6237528;28;20144;-80
2023/04/25 11:27:50;;;;;;;5.38;2.40;;;;;;;;;;6231944;28;20060;-78
2023/04/25 11:30:52;;;;;;;4.43;2.50;;;;;;;;;;6228344;28;20052;-78
2023/04/25 11:33:54;;;;;;;6.50;2.33;;;;;;;;;;6257588;28;20045;-77
2023/04/25 11:36:57;;;;;;;6.57;2.40;;;;;;;;;;6238374;28;20048;-79
2023/04/25 11:39:58;;;;;;;7.35;2.78;;;;;;;;;;6232803;28;20112;-80
2023/04/25 11:43:01;;;;;;;7.13;2.47;;;;;;;;;;6246816;28;20049;-81
2023/04/25 11:46:07;;;;;;;6.35;2.60;;;;;;;;;;6228519;28;20431;-79
2023/04/25 11:49:09;;;;;;;5.35;2.15;;;;;;;;;;6233009;28;20042;-81
2023/04/25 11:52:11;;;;;;;6.25;2.30;;;;;;;;;;6225356;28;20562;-78
2023/04/25 11:55:14;;;;;;;3.35;1.92;;;;;;;;;;6244898;28;20045;-81
2023/04/25 11:58:16;;;;;;;6.47;2.20;;;;;;;;;;6222480;28;20072;-79
2023/04/25 12:01:37;;;;;;;5.03;2.03;;;;;;;;;;6232805;28;20746;-80
2023/04/25 12:04:40;;;;;;;6.28;2.83;;;;;;;;;;6217010;28;20064;-79
2023/04/25 12:07:44;;;;;;;5.47;2.35;;;;;;;;;;6218177;28;20104;-77
2023/04/25 12:10:46;;;;;;;7.50;2.53;;;;;;;;;;6203711;28;20049;-81
2023/04/25 12:13:53;;;;;;;3.27;1.70;;;;;;;;;;6210448;28;20042;-79
2023/04/25 12:16:57;;;;;;;4.95;2.10;;;;;;;;;;6210487;28;20108;-78
2023/04/25 12:19:59;;;;;;;5.25;1.75;;;;;;;;;;6198106;28;20046;-75
2023/04/25 12:23:07;;;;;;;4.60;2.15;;;;;;;;;;6206925;28;20128;-77
2023/04/25 12:26:08;;;;;;;4.50;1.92;;;;;;;;;;6214062;28;20152;-78
2023/04/25 12:29:24;;;;;;;4.43;1.92;;;;;;;;;;6230381;28;20049;-77
2023/04/25 12:32:32;;;;;;;3.90;1.73;;;;;;;;;;6230425;28;20045;-78
2023/04/25 12:35:33;;;;;;;4.75;2.10;;;;;;;;;;6232397;28;20148;-78
2023/04/25 12:38:40;;;;;;;7.38;2.40;;;;;;;;;;6245915;28;20076;-77
2023/04/25 12:41:41;;;;;;;5.47;2.05;;;;;;;;;;6248206;28;20045;-76
2023/04/25 12:44:43;;;;;;;8.90;2.63;;;;;;;;;;6231282;28;20045;-78
2023/04/25 12:47:45;;;;;;;3.63;1.60;;;;;;;;;;6233711;28;20079;-77
2023/04/25 12:50:48;;;;;;;4.53;1.77;;;;;;;;;;6245326;28;20056;-77
2023/04/25 12:53:51;;;;;;;;;;;;;;;;;;6242730;28;20060;-77
2023/04/25 12:56:53;;;;;;;4.05;1.50;;;;;;;;;;6229424;28;19925;-78
2023/04/25 12:59:54;;;;;;;3.30;1.45;;;;;;;;;;6229838;28;20521;-78
2023/04/25 13:02:56;;;;;;;3.92;1.55;;;;;;;;;;6224669;28;20160;-79
2023/04/25 13:05:58;;;;;;;2.70;1.70;;;;;;;;;;6230453;28;20052;-77
2023/04/25 13:09:00;;;;;;;2.78;1.65;;;;;;;;;;6226712;28;20053;-78
2023/04/25 13:12:01;;;;;;;4.82;1.70;;;;;;;;;;6226116;28;20044;-78
2023/04/25 13:15:04;;;;;;;7.68;2.00;;;;;;;;;;6234959;28;20105;-78
2023/04/25 13:18:05;;;;;;;4.63;1.90;;;;;;;;;;6229231;28;20736;-79
2023/04/25 13:21:10;;;;;;;5.80;1.67;;;;;;;;;;6241350;28;20072;-78
2023/04/25 13:24:12;;;;;;;4.32;1.90;;;;;;;;;;6229684;28;22683;-78
2023/04/25 13:27:14;;;;;;;6.88;1.83;;;;;;;;;;6226586;28;20570;-78
2023/04/25 13:30:15;;;;;;;3.95;1.60;;;;;;;;;;6238828;28;20106;-79
2023/04/25 13:33:18;;;;;;;2.55;1.48;;;;;;;;;;6237337;28;20098;-77
2023/04/25 13:36:19;;;;;;;5.20;1.52;;;;;;;;;;6228215;28;20049;-77
2023/04/25 13:39:22;;;;;;;4.90;1.47;;;;;;;;;;6243860;28;20048;-76
2023/04/25 13:42:23;;;;;;;4.15;1.50;;;;;;;;;;6231529;28;20050;-77
2023/04/25 13:45:26;;;;;;;3.50;1.50;;;;;;;;;;6231761;28;20041;-77
2023/04/25 13:48:27;;;;;;;2.00;1.25;;;;;;;;;;6248226;28;20054;-75
2023/04/25 13:51:30;;;;;;;3.03;1.25;;;;;;;;;;6218369;28;20135;-76
2023/04/25 13:54:33;;;;;;;3.92;1.40;;;;;;;;;;6227593;28;20508;-76
2023/04/25 13:57:35;;;;;;;3.88;1.95;;;;;;;;;;6232702;28;20477;-76
2023/04/25 14:00:42;;;;;;;4.13;1.40;;;;;;;;;;6232499;28;20049;-76
2023/04/25 14:03:45;;;;;;;3.33;1.50;;;;;;;;;;6251085;28;20049;-76
2023/04/25 14:06:46;;;;;;;;;;;;;;;;;;6248319;28;20044;-76
2023/04/25 14:09:48;;;;;;;2.40;1.40;;;;;;;;;;6216329;28;19925;-76
2023/04/25 14:12:50;;;;;;;4.10;1.40;;;;;;;;;;6208646;28;20439;-76
2023/04/25 14:15:51;;;;;;;4.30;1.50;;;;;;;;;;6208167;28;20073;-76
2023/04/25 14:18:54;;;;;;;2.75;1.50;;;;;;;;;;6206399;28;20045;-75
2023/04/25 14:21:56;;;;;;;5.07;1.20;;;;;;;;;;6208382;28;20391;-76
2023/04/25 14:24:57;;;;;;;4.43;1.52;;;;;;;;;;6232147;28;20461;-75
2023/04/25 14:28:00;;;;;;;4.07;1.40;;;;;;;;;;6233577;28;20098;-77
2023/04/25 14:31:01;;;;;;;5.15;1.48;;;;;;;;;;6245267;28;20050;-77
2023/04/25 14:34:03;;;;;;;3.70;1.40;;;;;;;;;;6226846;28;20046;-77
2023/04/25 14:37:04;;;;;;;4.07;1.40;;;;;;;;;;6229831;28;20403;-76
2023/04/25 14:40:10;;;;;;;4.38;1.60;;;;;;;;;;6228409;28;20558;-77
2023/04/25 14:43:12;;;;;;;4.05;2.15;;;;;;;;;;6244213;28;20056;-77
2023/04/25 14:46:14;;;;;;;2.92;1.45;;;;;;;;;;6228600;28;20468;-76
2023/04/25 14:49:18;;;;;;;4.20;1.38;;;;;;;;;;6229314;28;20109;-77
2023/04/25 14:52:20;;;;;;;2.67;1.25;;;;;;;;;;6228088;28;20048;-78
2023/04/25 14:55:22;;;;;;;6.15;1.55;;;;;;;;;;6226630;28;20050;-77
2023/04/25 14:58:24;;;;;;;4.00;1.17;;;;;;;;;;6247071;28;20103;-77
2023/04/25 15:01:26;;;;;;;5.60;1.58;;;;;;;;;;6222916;28;20057;-76
2023/04/25 15:04:28;;;;;;;2.33;1.10;;;;;;;;;;6209909;28;20053;-77
2023/04/25 15:07:30;;;;;;;7.33;2.33;;;;;;;;;;6189125;28;20090;-77
2023/04/25 15:10:32;;;;;;;3.85;1.60;;;;;;;;;;6220413;28;20132;-78
2023/04/25 15:13:34;;;;;;;3.45;1.60;;;;;;;;;;6232002;28;20055;-78
2023/04/25 15:16:36;;;;;;;3.15;1.40;;;;;;;;;;6235690;28;20506;-77
2023/04/25 15:19:38;;;;;;;4.40;1.50;;;;;;;;;;6228093;28;20053;-76
2023/04/25 15:22:41;;;;;;;6.43;1.85;;;;;;;;;;6212012;28;20049;-79
2023/04/25 15:25:42;;;;;;;5.05;1.60;;;;;;;;;;6247355;28;20129;-76
2023/04/25 15:28:44;;;;;;;2.95;1.50;;;;;;;;;;6223413;28;20053;-76
2023/04/25 15:31:46;;;;;;;4.65;1.65;;;;;;;;;;6245105;28;20168;-77
2023/04/25 15:34:47;;;;;;;4.28;1.52;;;;;;;;;;6230929;28;20030;-77
2023/04/25 15:37:50;;;;;;;5.65;1.90;;;;;;;;;;6222560;28;20045;-77
2023/04/25 15:40:52;;;;;;;1.70;1.50;;;;;;;;;;6209816;28;20129;-75
2023/04/25 15:43:53;;;;;;;2.80;1.30;;;;;;;;;;6206389;28;20042;-75
2023/04/25 15:46:55;;;;;;;3.20;1.70;;;;;;;;;;6230944;28;20045;-76
2023/04/25 15:49:57;;;;;;;4.10;1.80;;;;;;;;;;6227475;28;20163;-76
2023/04/25 15:52:59;;;;;;;4.88;2.05;;;;;;;;;;6245635;28;20041;-75
2023/04/25 15:56:01;;;;;;;2.55;1.48;;;;;;;;;;6227268;28;20718;-77
2023/04/25 15:59:02;;;;;;;3.03;1.50;;;;;;;;;;6230735;28;20042;-76
2023/04/25 16:02:04;;;;;;;3.15;2.03;;;;;;;;;;6232811;28;20045;-77
2023/04/25 16:05:07;;;;;;;7.47;1.90;;;;;;;;;;6231948;28;20060;-78
2023/04/25 16:08:09;;;;;;;;;;;;;;;;;;6233035;28;20033;-77
2023/04/25 16:11:13;;;;;;;4.95;1.63;;;;;;;;;;6229009;28;19981;-78
2023/04/25 16:14:15;;;;;;;2.58;1.58;;;;;;;;;;6228071;28;20523;-77
2023/04/25 16:17:16;;;;;;;3.97;2.00;;;;;;;;;;6210058;28;20510;-76
2023/04/25 16:20:18;;;;;;;2.35;1.25;;;;;;;;;;6231033;28;20511;-76
2023/04/25 16:23:19;;;;;;;4.03;1.60;;;;;;;;;;6229504;28;20045;-78
2023/04/25 16:26:21;;;;;;;2.78;1.30;;;;;;;;;;6226843;28;20050;-77
2023/04/25 16:29:23;;;;;;;4.60;1.80;;;;;;;;;;6230828;28;20041;-78
2023/04/25 16:32:24;;;;;;;3.65;1.35;;;;;;;;;;6229630;28;20049;-77
2023/04/25 16:35:29;;;;;;;2.20;1.27;;;;;;;;;;6228748;28;20404;-77
2023/04/25 16:38:30;;;;;;;3.63;1.45;;;;;;;;;;6232177;28;20110;-77
2023/04/25 16:41:33;;;;;;;3.10;1.42;;;;;;;;;;6243370;28;20054;-78
2023/04/25 16:44:34;;;;;;;2.35;1.20;;;;;;;;;;6230360;28;20095;-77
2023/04/25 16:47:36;;;;;;;2.67;1.40;;;;;;;;;;6231029;28;20053;-78
2023/04/25 16:50:37;;;;;;;2.78;1.35;;;;;;;;;;6246821;28;20056;-76
2023/04/25 16:53:40;;;;;;;2.45;1.17;;;;;;;;;;6235277;28;20078;-78
2023/04/25 16:56:42;;;;;;;1.70;1.30;;;;;;;;;;6228826;28;20519;-75
2023/04/25 16:59:43;;;;;;;4.45;1.23;;;;;;;;;;6236743;28;20699;-78
2023/04/25 17:02:45;;;;;;;4.75;1.30;;;;;;;;;;6237134;28;20566;-78
2023/04/25 17:05:55;;;;;;;3.33;1.17;;;;;;;;;;6235033;28;20049;-78
2023/04/25 17:08:57;;;;;;;2.17;1.10;;;;;;;;;;6235837;28;20071;-79
2023/04/25 17:12:01;;;;;;;2.70;1.10;;;;;;;;;;6235638;28;20037;-77
2023/04/25 17:15:03;;;;;;;2.67;1.20;;;;;;;;;;6236462;28;20045;-79
2023/04/25 17:18:07;;;;;;;2.85;1.30;;;;;;;;;;6245032;28;20561;-78
2023/04/25 17:21:09;;;;;;;2.95;1.20;;;;;;;;;;6236784;28;20143;-79
2023/04/25 17:24:14;;;;;;;3.43;1.23;;;;;;;;;;6237598;28;20399;-78
2023/04/25 17:27:17;;;;;;;1.58;1.15;;;;;;;;;;6233555;28;20038;-78
2023/04/25 17:30:19;;;;;;;2.85;1.20;;;;;;;;;;6249605;28;20053;-78
2023/04/25 17:33:25;;;;;;;2.42;1.40;;;;;;;;;;6220350;28;20045;-77
2023/04/25 17:36:28;;;;;;;3.45;1.67;;;;;;;;;;6221771;28;20041;-78
2023/04/25 17:39:29;;;;;;;8.70;3.88;;;;;;;;;;6228523;28;20053;-78
2023/04/25 17:42:31;;;;;;;3.88;1.75;;;;;;;;;;6230619;28;20128;-79
2023/04/25 17:45:33;;;;;;;3.17;1.67;;;;;;;;;;6212033;28;20051;-78
2023/04/25 17:48:35;;;;;;;6.27;3.27;;;;;;;;;;6229756;28;20435;-78
2023/04/25 17:51:36;;;;;;;3.05;1.40;;;;;;;;;;6209554;28;20045;-78
2023/04/25 17:54:38;;;;;;;4.55;1.48;;;;;;;;;;6230638;28;20072;-76
2023/04/25 17:57:40;;;;;;;2.85;1.30;;;;;;;;;;6245693;28;20045;-76
2023/04/25 18:00:42;;;;;;;3.42;1.10;;;;;;;;;;6229870;28;20094;-78
2023/04/25 18:03:47;;;;;;;5.03;1.10;;;;;;;;;;6210656;28;20041;-78
2023/04/25 18:06:50;;;;;;;2.53;1.00;;;;;;;;;;6224681;28;20112;-78
2023/04/25 18:09:51;;;;;;;3.35;1.15;;;;;;;;;;6226971;28;20052;-77
2023/04/25 18:12:54;;;;;;;1.60;1.05;;;;;;;;;;6246514;28;20041;-77
2023/04/25 18:15:55;;;;;;;3.85;1.13;;;;;;;;;;6224125;28;20260;-77
2023/04/25 18:19:04;;;;;;;2.05;1.00;;;;;;;;;;6245320;28;20049;-78
2023/04/25 18:22:05;;;;;;;4.20;1.40;;;;;;;;;;6243041;28;20130;-76
2023/04/25 18:25:12;;;;;;;2.35;1.35;;;;;;;;;;6244824;28;20129;-78
2023/04/25 18:28:14;;;;;;;7.68;1.30;;;;;;;;;;6233850;28;20044;-77